Selinsgrove, PA

4:54 PM EST on March 01, 2017 (GMT -0500)
Penn Valley | | Change Station
Active Advisory: Wind Advisory

Elev 449 ft 40.82 °N, 76.86 °W | Updated 1 hour ago

Clear
Clear
62 °F
Feels Like 62 °F
N
9
Wind Variable Wind from South
Gusts 16 mph

Today
High -- | Low -- °F
--% Chance of Precip.
Yesterday
High -- | Low -- °F
Precip. -- in
Pressure 29.47 in
Visibility 10.0 miles
Clouds Clear
Dew Point 56 °F
Humidity 80%
Rainfall 0.59 in
Snow Depth Not available.
6:41 AM 5:58 PM
Waxing Crescent, 13% visible
METAR KSEG 012053Z AUTO 19008G14KT 10SM CLR 17/13 A2947 RMK AO2 SLP980 60004 T01670133 58030
Pressure 29.47 in
Visibility 10.0 miles
Clouds Clear
Dew Point 56 °F
Humidity 80%
Rainfall 0.59 in
Snow Depth Not available.
6:41 AM 5:58 PM
Waxing Crescent, 13% visible
METAR KSEG 012053Z AUTO 19008G14KT 10SM CLR 17/13 A2947 RMK AO2 SLP980 60004 T01670133 58030

Get Your Daily Forecast Email!

Thanks for signing up!

Be on the lookout for a verification email in your inbox.

You'll start receiving the daily forecast at 8 AM.

×

10-Day Weather Forecast

Almanac

Astronomy

Mar. 01, 2017 Rise Set
Actual Time
Civil Twilight
Nautical Twilight
Astronomical Twilight
Moon
Length of Visible Light
Length of Day
Tomorrow will be .
, % of the Moon is Illuminated

Today's Extremes

State Highs State Lows

Community

WunderPhotos

Upload Photos

1,962,540 photos uploaded!

WunderBlog® & News

Nearby

Air Quality

  Air Quality AQ Index Pollutant
Not available.

Snow Depth

Station Depth Elevation

Earthquake Activity

City Distance Mag. Time & Date
Minimum magnitude displayed is 2.5.

Coastal Water Temperatures

Place Temperature

Stations

Nearby Weather Stations

Station Location Temp. Windchill Dew Point Humidity Wind Precip. Elev Updated Type
                   

Watches & Warnings

Wind Advisory
Issued: 3:43 PM EST Mar. 1, 2017 – National Weather Service

... Wind Advisory in effect from 10 PM this evening to 9 am EST
Thursday...

The National Weather Service in State College has issued a Wind
Advisory, which is in effect from 10 PM this evening to 9 am EST
Thursday.

* Winds... west 20 to 25 mph with occasional gusts between 45 and
55 mph.

* Timing... late this evening through the primary morning commute
hours Thursday.

* Impacts... strong winds may blow down limbs, trees, and power
lines. Scattered power outages are expected.

Precautionary/preparedness actions...

Review wind safety and preparedness information at
weather.Gov/wind.



Lambert